Fort Worth Nas Jrb/Carswell field
KNFW : now visible

Airfield :











YOU CAN JOIN US ON...

 
LOGIN :

Register | Disclaimer

   EN    FR    IT 

 









Legend :    VFR   Marginal VFR   IFR   Intensive IFR   Very Intensive IFR
Visi :
Ceiling :
>= 8 km
>= 3000ft
5 to 8 km
1000 to 3000 ft
1500m to 5 km
500 to 1000 ft
800 to 1500m
200 to 500 ft
< 800m
< 200 ft
Symbols :   Thunderstorms  Fog  Heavy snow  Heavy precipitations  Wind > 20 kt






- Airport Elevation : 650 ft


KNFW - Fort Worth Nas Jrb/Carswell field

CURRENT METAR :
  • 040252Z 36010KT 10SM OVC014 06/03 A3012 RMK AO2 RAB0155E14 SLP181 P0000 60000 T00560028 50012 VISNO N $

EXPIRED METARs :
  • 040215Z 01011KT 10SM OVC016 06/03 A3010 RMK AO2 RAB0155E14 CIG 009 N P0000 T00560028 VISNO N $
  • 040152Z 36011KT 10SM OVC013 06/03 A3009 RMK AO2 CIG 007 N SLP171 T00560028 VISNO N $
  • 040052Z 36015KT 10SM OVC012 06/03 A3008 RMK AO2 SLP169 T00560028 VISNO N $

TAF TAF KNFW
Valid from the 03 at 23:00 until the 04 at 23:00 UTC


0323/0423 36014KT 9999 OVC010 QNH3002INS
BECMG 0403/0405 35009KT 9999 VCSH OVC020 QNH3004INS
BECMG 0416/0418 01008KT 9999 -SHRA VCTS OVC025CB QNH3000INS AUTOMATED SENSOR METWATCH 0404 TIL 0411 T04/0413Z T12/0423Z FN20048



MET'MAP, your aeronautical weather chart ! - Copyright ORBIFLY December 2007 - Disclaimer

ORBIFLY MET'MAP TEAM :

Programming & Development : Alexandra Zaïnal
Concept & original design : Baudouin d'Aumeries
Assistance for programming : Marc-Olivier Méhu
Technical & hardware support : Manuel Goepfert

Contact : metmap@orbifly.com




SOURCES & CREDITS :

   NOAA       Earth
Advisory